sensor_id;sensor_type;location;lat;lon;timestamp;pressure;altitude;pressure_sealevel;temperature;humidity
75172;BME280;63750;52.418;20.742;2023-04-03T00:01:06;101304.05;;;5.02;51.62
75172;BME280;63750;52.418;20.742;2023-04-03T00:03:36;101305.02;;;5.03;51.51
75172;BME280;63750;52.418;20.742;2023-04-03T00:06:05;101305.73;;;4.96;51.19
75172;BME280;63750;52.418;20.742;2023-04-03T00:08:33;101312.61;;;4.92;50.96
75172;BME280;63750;52.418;20.742;2023-04-03T00:11:03;101310.10;;;4.90;51.31
75172;BME280;63750;52.418;20.742;2023-04-03T00:13:32;101306.27;;;4.86;51.45
75172;BME280;63750;52.418;20.742;2023-04-03T00:16:01;101311.66;;;4.87;51.53
75172;BME280;63750;52.418;20.742;2023-04-03T00:18:30;101312.92;;;4.86;51.74
75172;BME280;63750;52.418;20.742;2023-04-03T00:20:58;101312.41;;;4.89;51.48
75172;BME280;63750;52.418;20.742;2023-04-03T00:23:27;101314.50;;;4.89;51.41
75172;BME280;63750;52.418;20.742;2023-04-03T00:25:55;101319.17;;;4.84;51.37
75172;BME280;63750;52.418;20.742;2023-04-03T00:28:24;101317.68;;;4.82;51.22
75172;BME280;63750;52.418;20.742;2023-04-03T00:30:53;101316.13;;;4.78;51.59
75172;BME280;63750;52.418;20.742;2023-04-03T00:33:21;101317.80;;;4.76;51.27
75172;BME280;63750;52.418;20.742;2023-04-03T00:35:50;101317.80;;;4.74;51.21
75172;BME280;63750;52.418;20.742;2023-04-03T00:38:19;101317.89;;;4.75;51.41
75172;BME280;63750;52.418;20.742;2023-04-03T00:40:49;101321.49;;;4.73;51.20
75172;BME280;63750;52.418;20.742;2023-04-03T00:43:20;101319.35;;;4.70;51.16
75172;BME280;63750;52.418;20.742;2023-04-03T00:45:50;101322.55;;;4.66;51.02
75172;BME280;63750;52.418;20.742;2023-04-03T00:48:21;101324.86;;;4.61;51.31
75172;BME280;63750;52.418;20.742;2023-04-03T00:50:52;101327.73;;;4.60;51.00
75172;BME280;63750;52.418;20.742;2023-04-03T00:53:24;101328.83;;;4.56;51.21
75172;BME280;63750;52.418;20.742;2023-04-03T00:55:54;101331.38;;;4.58;51.28
75172;BME280;63750;52.418;20.742;2023-04-03T00:58:28;101333.10;;;4.58;51.31
75172;BME280;63750;52.418;20.742;2023-04-03T01:01:02;101331.11;;;4.59;51.16
75172;BME280;63750;52.418;20.742;2023-04-03T01:03:32;101338.44;;;4.60;51.20
75172;BME280;63750;52.418;20.742;2023-04-03T01:06:01;101339.36;;;4.59;51.25
75172;BME280;63750;52.418;20.742;2023-04-03T01:08:30;101340.19;;;4.60;50.96
75172;BME280;63750;52.418;20.742;2023-04-03T01:10:58;101347.61;;;4.56;50.95
75172;BME280;63750;52.418;20.742;2023-04-03T01:13:30;101348.38;;;4.54;51.22
75172;BME280;63750;52.418;20.742;2023-04-03T01:16:02;101354.95;;;4.53;51.06
75172;BME280;63750;52.418;20.742;2023-04-03T01:18:31;101358.63;;;4.53;51.27
75172;BME280;63750;52.418;20.742;2023-04-03T01:21:21;101363.06;;;4.52;51.21
75172;BME280;63750;52.418;20.742;2023-04-03T01:24:02;101364.16;;;4.51;51.24
75172;BME280;63750;52.418;20.742;2023-04-03T01:26:34;101363.00;;;4.46;51.03
75172;BME280;63750;52.418;20.742;2023-04-03T01:29:03;101368.79;;;4.43;51.02
75172;BME280;63750;52.418;20.742;2023-04-03T01:31:42;101369.11;;;4.44;50.88
75172;BME280;63750;52.418;20.742;2023-04-03T01:34:12;101369.45;;;4.40;50.86
75172;BME280;63750;52.418;20.742;2023-04-03T01:36:40;101374.16;;;4.41;51.13
75172;BME280;63750;52.418;20.742;2023-04-03T01:39:09;101378.17;;;4.37;50.77
75172;BME280;63750;52.418;20.742;2023-04-03T01:41:38;101376.29;;;4.29;50.89
75172;BME280;63750;52.418;20.742;2023-04-03T01:44:06;101377.29;;;4.27;50.91
75172;BME280;63750;52.418;20.742;2023-04-03T01:46:35;101379.27;;;4.25;50.72
75172;BME280;63750;52.418;20.742;2023-04-03T01:49:04;101375.45;;;4.17;50.76
75172;BME280;63750;52.418;20.742;2023-04-03T01:51:33;101375.05;;;4.11;50.79
75172;BME280;63750;52.418;20.742;2023-04-03T01:54:02;101381.49;;;4.08;50.81
75172;BME280;63750;52.418;20.742;2023-04-03T01:56:30;101381.42;;;4.10;50.76
75172;BME280;63750;52.418;20.742;2023-04-03T01:58:59;101382.89;;;4.04;50.88
75172;BME280;63750;52.418;20.742;2023-04-03T02:01:27;101385.71;;;4.00;50.82
75172;BME280;63750;52.418;20.742;2023-04-03T02:03:56;101388.62;;;3.98;50.70
75172;BME280;63750;52.418;20.742;2023-04-03T02:06:25;101393.09;;;3.96;51.05
75172;BME280;63750;52.418;20.742;2023-04-03T02:08:53;101396.13;;;3.95;50.99
75172;BME280;63750;52.418;20.742;2023-04-03T02:11:21;101395.95;;;3.95;50.91
75172;BME280;63750;52.418;20.742;2023-04-03T02:13:50;101397.14;;;3.92;50.90
75172;BME280;63750;52.418;20.742;2023-04-03T02:16:18;101396.34;;;3.90;51.09
75172;BME280;63750;52.418;20.742;2023-04-03T02:18:47;101399.91;;;3.85;51.10
75172;BME280;63750;52.418;20.742;2023-04-03T02:21:15;101402.04;;;3.80;51.35
75172;BME280;63750;52.418;20.742;2023-04-03T02:23:44;101408.03;;;3.80;51.30
75172;BME280;63750;52.418;20.742;2023-04-03T02:26:15;101407.77;;;3.77;51.28
75172;BME280;63750;52.418;20.742;2023-04-03T02:28:44;101407.43;;;3.73;51.35
75172;BME280;63750;52.418;20.742;2023-04-03T02:31:12;101412.00;;;3.73;51.39
75172;BME280;63750;52.418;20.742;2023-04-03T02:33:42;101413.34;;;3.71;51.43
75172;BME280;63750;52.418;20.742;2023-04-03T02:36:10;101414.17;;;3.68;51.43
75172;BME280;63750;52.418;20.742;2023-04-03T02:38:39;101414.81;;;3.65;51.43
75172;BME280;63750;52.418;20.742;2023-04-03T02:41:09;101416.88;;;3.62;51.48
75172;BME280;63750;52.418;20.742;2023-04-03T02:43:38;101414.77;;;3.58;51.52
75172;BME280;63750;52.418;20.742;2023-04-03T02:46:08;101413.68;;;3.56;51.53
75172;BME280;63750;52.418;20.742;2023-04-03T02:48:36;101416.11;;;3.51;51.42
75172;BME280;63750;52.418;20.742;2023-04-03T02:51:05;101421.30;;;3.45;51.44
75172;BME280;63750;52.418;20.742;2023-04-03T02:53:34;101425.10;;;3.42;51.56
75172;BME280;63750;52.418;20.742;2023-04-03T02:56:02;101422.63;;;3.42;51.60
75172;BME280;63750;52.418;20.742;2023-04-03T02:58:31;101424.76;;;3.42;51.71
75172;BME280;63750;52.418;20.742;2023-04-03T03:01:00;101430.69;;;3.39;51.78
75172;BME280;63750;52.418;20.742;2023-04-03T03:03:28;101429.59;;;3.36;51.54
75172;BME280;63750;52.418;20.742;2023-04-03T03:06:04;101430.73;;;3.34;51.84
75172;BME280;63750;52.418;20.742;2023-04-03T03:08:33;101435.16;;;3.28;51.91
75172;BME280;63750;52.418;20.742;2023-04-03T03:11:01;101433.11;;;3.27;52.09
75172;BME280;63750;52.418;20.742;2023-04-03T03:13:31;101429.95;;;3.27;51.99
75172;BME280;63750;52.418;20.742;2023-04-03T03:16:00;101430.73;;;3.25;51.94
75172;BME280;63750;52.418;20.742;2023-04-03T03:18:29;101430.83;;;3.23;52.05
75172;BME280;63750;52.418;20.742;2023-04-03T03:21:00;101433.42;;;3.20;52.03
75172;BME280;63750;52.418;20.742;2023-04-03T03:23:30;101433.79;;;3.19;52.01
75172;BME280;63750;52.418;20.742;2023-04-03T03:26:02;101435.08;;;3.17;52.06
75172;BME280;63750;52.418;20.742;2023-04-03T03:28:31;101436.90;;;3.20;52.07
75172;BME280;63750;52.418;20.742;2023-04-03T03:31:00;101437.42;;;3.21;51.96
75172;BME280;63750;52.418;20.742;2023-04-03T03:33:28;101439.71;;;3.16;52.06
75172;BME280;63750;52.418;20.742;2023-04-03T03:35:57;101441.98;;;3.15;52.20
75172;BME280;63750;52.418;20.742;2023-04-03T03:38:26;101445.33;;;3.15;52.34
75172;BME280;63750;52.418;20.742;2023-04-03T03:40:55;101448.88;;;3.14;52.13
75172;BME280;63750;52.418;20.742;2023-04-03T03:43:23;101452.46;;;3.08;52.29
75172;BME280;63750;52.418;20.742;2023-04-03T03:45:52;101451.15;;;3.10;52.24
75172;BME280;63750;52.418;20.742;2023-04-03T03:48:22;101453.23;;;3.15;52.38
75172;BME280;63750;52.418;20.742;2023-04-03T03:50:50;101444.98;;;3.19;52.61
75172;BME280;63750;52.418;20.742;2023-04-03T03:53:19;101448.94;;;3.22;52.42
75172;BME280;63750;52.418;20.742;2023-04-03T03:55:47;101453.27;;;3.18;52.30
75172;BME280;63750;52.418;20.742;2023-04-03T03:58:16;101446.41;;;3.19;52.25
75172;BME280;63750;52.418;20.742;2023-04-03T04:00:45;101448.09;;;3.16;52.21
75172;BME280;63750;52.418;20.742;2023-04-03T04:03:13;101447.66;;;3.18;52.25
75172;BME280;63750;52.418;20.742;2023-04-03T04:05:42;101448.98;;;3.20;52.24
75172;BME280;63750;52.418;20.742;2023-04-03T04:08:11;101449.10;;;3.17;52.31
75172;BME280;63750;52.418;20.742;2023-04-03T04:10:39;101444.29;;;3.19;52.34
75172;BME280;63750;52.418;20.742;2023-04-03T04:13:08;101446.14;;;3.16;52.36
75172;BME280;63750;52.418;20.742;2023-04-03T04:15:37;101452.74;;;3.14;52.21
75172;BME280;63750;52.418;20.742;2023-04-03T04:18:05;101454.77;;;3.12;52.24
75172;BME280;63750;52.418;20.742;2023-04-03T04:20:34;101455.93;;;3.05;52.40
75172;BME280;63750;52.418;20.742;2023-04-03T04:23:02;101456.27;;;3.00;52.42
75172;BME280;63750;52.418;20.742;2023-04-03T04:25:31;101458.25;;;2.99;52.49
75172;BME280;63750;52.418;20.742;2023-04-03T04:27:59;101461.84;;;3.01;52.43
75172;BME280;63750;52.418;20.742;2023-04-03T04:30:28;101462.11;;;3.03;52.51
75172;BME280;63750;52.418;20.742;2023-04-03T04:32:57;101460.10;;;3.06;52.52
75172;BME280;63750;52.418;20.742;2023-04-03T04:35:25;101463.00;;;3.08;52.59
75172;BME280;63750;52.418;20.742;2023-04-03T04:37:54;101461.71;;;3.09;52.54
75172;BME280;63750;52.418;20.742;2023-04-03T04:40:22;101460.34;;;3.09;52.57
75172;BME280;63750;52.418;20.742;2023-04-03T04:42:51;101463.33;;;3.08;52.41
75172;BME280;63750;52.418;20.742;2023-04-03T04:45:20;101466.56;;;3.06;52.54
75172;BME280;63750;52.418;20.742;2023-04-03T04:47:49;101466.05;;;3.06;52.60
75172;BME280;63750;52.418;20.742;2023-04-03T04:50:17;101466.60;;;3.05;52.62
75172;BME280;63750;52.418;20.742;2023-04-03T04:52:46;101468.56;;;3.08;52.47
75172;BME280;63750;52.418;20.742;2023-04-03T04:55:15;101470.40;;;3.11;52.38
75172;BME280;63750;52.418;20.742;2023-04-03T04:57:43;101472.74;;;3.09;52.37
75172;BME280;63750;52.418;20.742;2023-04-03T05:00:14;101479.59;;;3.08;52.33
75172;BME280;63750;52.418;20.742;2023-04-03T05:02:43;101481.36;;;3.12;52.38
75172;BME280;63750;52.418;20.742;2023-04-03T05:05:12;101486.45;;;3.16;52.46
75172;BME280;63750;52.418;20.742;2023-04-03T05:07:40;101485.65;;;3.18;52.37
75172;BME280;63750;52.418;20.742;2023-04-03T05:10:11;101495.88;;;3.21;52.38
75172;BME280;63750;52.418;20.742;2023-04-03T05:12:39;101496.16;;;3.27;52.46
75172;BME280;63750;52.418;20.742;2023-04-03T05:15:10;101491.16;;;3.38;52.78
75172;BME280;63750;52.418;20.742;2023-04-03T05:17:38;101491.62;;;3.36;52.42
75172;BME280;63750;52.418;20.742;2023-04-03T05:20:08;101500.24;;;3.34;52.45
75172;BME280;63750;52.418;20.742;2023-04-03T05:22:37;101502.16;;;3.30;52.42
75172;BME280;63750;52.418;20.742;2023-04-03T05:25:08;101504.52;;;3.24;52.26
75172;BME280;63750;52.418;20.742;2023-04-03T05:27:36;101501.97;;;3.22;52.30
75172;BME280;63750;52.418;20.742;2023-04-03T05:30:07;101510.37;;;3.23;52.36
75172;BME280;63750;52.418;20.742;2023-04-03T05:32:39;101515.49;;;3.26;52.38
75172;BME280;63750;52.418;20.742;2023-04-03T05:35:08;101518.33;;;3.33;52.14
75172;BME280;63750;52.418;20.742;2023-04-03T05:37:37;101519.17;;;3.42;52.05
75172;BME280;63750;52.418;20.742;2023-04-03T05:40:08;101524.52;;;3.48;52.10
75172;BME280;63750;52.418;20.742;2023-04-03T05:42:36;101520.33;;;3.57;52.11
75172;BME280;63750;52.418;20.742;2023-04-03T05:45:06;101526.88;;;3.59;51.87
75172;BME280;63750;52.418;20.742;2023-04-03T05:47:35;101525.40;;;3.65;51.96
75172;BME280;63750;52.418;20.742;2023-04-03T05:50:04;101525.63;;;3.72;51.80
75172;BME280;63750;52.418;20.742;2023-04-03T05:52:35;101526.72;;;3.79;51.54
75172;BME280;63750;52.418;20.742;2023-04-03T05:55:05;101523.94;;;3.87;51.58
75172;BME280;63750;52.418;20.742;2023-04-03T05:57:33;101528.29;;;3.87;51.65
75172;BME280;63750;52.418;20.742;2023-04-03T06:00:03;101532.86;;;3.91;51.32
75172;BME280;63750;52.418;20.742;2023-04-03T06:02:31;101531.06;;;3.92;51.26
75172;BME280;63750;52.418;20.742;2023-04-03T06:05:00;101533.24;;;3.95;51.00
75172;BME280;63750;52.418;20.742;2023-04-03T06:07:28;101536.95;;;3.98;51.02
75172;BME280;63750;52.418;20.742;2023-04-03T06:09:58;101538.77;;;4.04;51.23
75172;BME280;63750;52.418;20.742;2023-04-03T06:12:26;101538.79;;;4.12;50.89
75172;BME280;63750;52.418;20.742;2023-04-03T06:14:55;101539.34;;;4.19;50.80
75172;BME280;63750;52.418;20.742;2023-04-03T06:17:23;101544.59;;;4.23;50.53
75172;BME280;63750;52.418;20.742;2023-04-03T06:19:52;101544.88;;;4.33;50.79
75172;BME280;63750;52.418;20.742;2023-04-03T06:22:21;101545.81;;;4.39;50.62
75172;BME280;63750;52.418;20.742;2023-04-03T06:24:49;101545.91;;;4.41;50.78
75172;BME280;63750;52.418;20.742;2023-04-03T06:27:18;101549.56;;;4.46;50.38
75172;BME280;63750;52.418;20.742;2023-04-03T06:29:46;101551.86;;;4.53;50.29
75172;BME280;63750;52.418;20.742;2023-04-03T06:32:15;101557.11;;;4.57;50.36
75172;BME280;63750;52.418;20.742;2023-04-03T06:34:43;101558.45;;;4.66;50.35
75172;BME280;63750;52.418;20.742;2023-04-03T06:37:16;101561.05;;;4.70;50.19
75172;BME280;63750;52.418;20.742;2023-04-03T06:39:45;101562.21;;;4.76;50.09
75172;BME280;63750;52.418;20.742;2023-04-03T06:42:13;101561.56;;;4.82;50.13
75172;BME280;63750;52.418;20.742;2023-04-03T06:44:42;101568.73;;;4.90;49.94
75172;BME280;63750;52.418;20.742;2023-04-03T06:47:13;101568.92;;;4.97;49.81
75172;BME280;63750;52.418;20.742;2023-04-03T06:49:42;101572.44;;;5.02;48.85
75172;BME280;63750;52.418;20.742;2023-04-03T06:52:11;101572.98;;;5.05;49.07
75172;BME280;63750;52.418;20.742;2023-04-03T06:54:40;101579.48;;;5.08;48.92
75172;BME280;63750;52.418;20.742;2023-04-03T06:57:08;101574.74;;;5.11;48.84
75172;BME280;63750;52.418;20.742;2023-04-03T06:59:37;101575.86;;;5.10;48.58
75172;BME280;63750;52.418;20.742;2023-04-03T07:02:11;101580.09;;;5.14;49.04
75172;BME280;63750;52.418;20.742;2023-04-03T07:04:40;101583.10;;;5.20;48.55
75172;BME280;63750;52.418;20.742;2023-04-03T07:07:08;101586.66;;;5.31;48.32
75172;BME280;63750;52.418;20.742;2023-04-03T07:09:37;101588.70;;;5.39;48.70
75172;BME280;63750;52.418;20.742;2023-04-03T07:12:05;101590.23;;;5.47;48.75
75172;BME280;63750;52.418;20.742;2023-04-03T07:14:34;101592.42;;;5.56;48.45
75172;BME280;63750;52.418;20.742;2023-04-03T07:17:02;101591.52;;;5.57;48.32
75172;BME280;63750;52.418;20.742;2023-04-03T07:19:31;101596.37;;;5.58;48.13
75172;BME280;63750;52.418;20.742;2023-04-03T07:22:00;101596.77;;;5.61;48.34
75172;BME280;63750;52.418;20.742;2023-04-03T07:24:28;101596.02;;;5.72;48.32
75172;BME280;63750;52.418;20.742;2023-04-03T07:26:57;101596.91;;;5.83;48.02
75172;BME280;63750;52.418;20.742;2023-04-03T07:29:25;101600.98;;;5.93;47.77
75172;BME280;63750;52.418;20.742;2023-04-03T07:31:54;101599.27;;;6.03;47.56
75172;BME280;63750;52.418;20.742;2023-04-03T07:34:23;101598.05;;;6.20;47.88
75172;BME280;63750;52.418;20.742;2023-04-03T07:36:51;101599.88;;;6.39;48.14
75172;BME280;63750;52.418;20.742;2023-04-03T07:39:20;101594.37;;;6.66;48.65
75172;BME280;63750;52.418;20.742;2023-04-03T07:41:48;101599.66;;;6.85;48.28
75172;BME280;63750;52.418;20.742;2023-04-03T07:44:17;101601.59;;;6.95;47.60
75172;BME280;63750;52.418;20.742;2023-04-03T07:46:46;101606.20;;;6.97;47.03
75172;BME280;63750;52.418;20.742;2023-04-03T07:49:14;101601.35;;;6.99;46.61
75172;BME280;63750;52.418;20.742;2023-04-03T07:51:43;101604.02;;;7.15;46.85
75172;BME280;63750;52.418;20.742;2023-04-03T07:54:11;101604.30;;;7.41;47.28
75172;BME280;63750;52.418;20.742;2023-04-03T07:56:40;101609.56;;;7.63;47.16
75172;BME280;63750;52.418;20.742;2023-04-03T07:59:09;101608.39;;;7.74;46.38
75172;BME280;63750;52.418;20.742;2023-04-03T08:01:37;101610.77;;;7.78;45.85
75172;BME280;63750;52.418;20.742;2023-04-03T08:04:06;101615.79;;;7.77;45.32
75172;BME280;63750;52.418;20.742;2023-04-03T08:06:35;101613.91;;;7.76;44.90
75172;BME280;63750;52.418;20.742;2023-04-03T08:09:04;101614.03;;;7.74;44.18
75172;BME280;63750;52.418;20.742;2023-04-03T08:11:33;101611.81;;;7.85;44.96
75172;BME280;63750;52.418;20.742;2023-04-03T08:14:01;101608.54;;;8.01;44.83
75172;BME280;63750;52.418;20.742;2023-04-03T08:16:30;101603.71;;;8.05;44.57
75172;BME280;63750;52.418;20.742;2023-04-03T08:18:58;101607.13;;;8.07;43.99
75172;BME280;63750;52.418;20.742;2023-04-03T08:21:27;101608.32;;;8.05;43.78
75172;BME280;63750;52.418;20.742;2023-04-03T08:23:55;101604.73;;;8.12;43.71
75172;BME280;63750;52.418;20.742;2023-04-03T08:26:24;101607.91;;;8.18;43.42
75172;BME280;63750;52.418;20.742;2023-04-03T08:28:52;101609.05;;;8.17;43.14
75172;BME280;63750;52.418;20.742;2023-04-03T08:31:21;101616.82;;;8.26;42.62
75172;BME280;63750;52.418;20.742;2023-04-03T08:33:49;101621.22;;;8.26;42.66
75172;BME280;63750;52.418;20.742;2023-04-03T08:36:23;101620.89;;;8.29;42.93
75172;BME280;63750;52.418;20.742;2023-04-03T08:38:53;101618.05;;;8.29;42.31
75172;BME280;63750;52.418;20.742;2023-04-03T08:41:31;101622.86;;;8.22;42.43
75172;BME280;63750;52.418;20.742;2023-04-03T08:44:07;101616.17;;;8.34;42.77
75172;BME280;63750;52.418;20.742;2023-04-03T08:46:47;101624.65;;;8.33;42.38
75172;BME280;63750;52.418;20.742;2023-04-03T08:49:23;101628.86;;;8.46;42.41
75172;BME280;63750;52.418;20.742;2023-04-03T08:51:55;101629.92;;;8.58;42.19
75172;BME280;63750;52.418;20.742;2023-04-03T08:54:30;101626.80;;;8.68;42.14
75172;BME280;63750;52.418;20.742;2023-04-03T08:57:01;101621.52;;;8.88;42.56
75172;BME280;63750;52.418;20.742;2023-04-03T08:59:32;101620.59;;;8.96;41.64
75172;BME280;63750;52.418;20.742;2023-04-03T09:02:04;101624.86;;;9.04;41.77
75172;BME280;63750;52.418;20.742;2023-04-03T09:04:39;101627.59;;;9.17;41.74
75172;BME280;63750;52.418;20.742;2023-04-03T09:07:12;101629.15;;;9.32;41.51
75172;BME280;63750;52.418;20.742;2023-04-03T09:09:42;101625.58;;;9.40;41.40
75172;BME280;63750;52.418;20.742;2023-04-03T09:12:19;101620.44;;;9.43;41.18
75172;BME280;63750;52.418;20.742;2023-04-03T09:14:57;101621.20;;;9.39;40.58
75172;BME280;63750;52.418;20.742;2023-04-03T09:17:38;101621.02;;;9.26;39.95
75172;BME280;63750;52.418;20.742;2023-04-03T09:20:20;101623.34;;;9.23;39.80
75172;BME280;63750;52.418;20.742;2023-04-03T09:22:51;101619.98;;;9.29;40.08
75172;BME280;63750;52.418;20.742;2023-04-03T09:25:23;101620.41;;;9.33;39.37
75172;BME280;63750;52.418;20.742;2023-04-03T09:27:52;101617.79;;;9.18;39.44
75172;BME280;63750;52.418;20.742;2023-04-03T09:30:23;101628.27;;;9.06;39.48
75172;BME280;63750;52.418;20.742;2023-04-03T09:32:53;101630.58;;;9.06;39.76
75172;BME280;63750;52.418;20.742;2023-04-03T09:35:25;101628.21;;;9.07;39.54
75172;BME280;63750;52.418;20.742;2023-04-03T09:37:58;101620.77;;;9.13;39.70
75172;BME280;63750;52.418;20.742;2023-04-03T09:40:32;101628.36;;;9.13;38.94
75172;BME280;63750;52.418;20.742;2023-04-03T09:43:02;101624.15;;;9.35;39.30
75172;BME280;63750;52.418;20.742;2023-04-03T09:45:33;101625.61;;;9.48;39.26
75172;BME280;63750;52.418;20.742;2023-04-03T09:48:15;101632.06;;;9.49;39.00
75172;BME280;63750;52.418;20.742;2023-04-03T09:50:57;101629.04;;;9.55;39.07
75172;BME280;63750;52.418;20.742;2023-04-03T09:53:30;101627.03;;;9.72;38.66
75172;BME280;63750;52.418;20.742;2023-04-03T09:56:00;101627.04;;;9.75;38.31
75172;BME280;63750;52.418;20.742;2023-04-03T09:58:31;101628.41;;;9.72;38.23
75172;BME280;63750;52.418;20.742;2023-04-03T10:01:01;101630.40;;;9.75;38.06
75172;BME280;63750;52.418;20.742;2023-04-03T10:03:33;101632.02;;;9.74;37.93
75172;BME280;63750;52.418;20.742;2023-04-03T10:06:03;101630.62;;;9.79;37.87
75172;BME280;63750;52.418;20.742;2023-04-03T10:08:33;101635.02;;;9.82;37.31
75172;BME280;63750;52.418;20.742;2023-04-03T10:11:13;101639.27;;;9.98;37.04
75172;BME280;63750;52.418;20.742;2023-04-03T10:13:59;101630.48;;;10.24;37.17
75172;BME280;63750;52.418;20.742;2023-04-03T10:16:38;101628.65;;;10.40;36.94
75172;BME280;63750;52.418;20.742;2023-04-03T10:19:29;101626.03;;;10.35;36.55
75172;BME280;63750;52.418;20.742;2023-04-03T10:22:01;101635.65;;;10.10;36.92
75172;BME280;63750;52.418;20.742;2023-04-03T10:24:37;101631.55;;;10.00;35.89
75172;BME280;63750;52.418;20.742;2023-04-03T10:27:15;101628.04;;;9.99;36.30
75172;BME280;63750;52.418;20.742;2023-04-03T10:29:53;101628.02;;;9.97;36.03
75172;BME280;63750;52.418;20.742;2023-04-03T10:32:44;101629.80;;;10.05;36.28
75172;BME280;63750;52.418;20.742;2023-04-03T10:35:18;101621.80;;;10.29;36.35
75172;BME280;63750;52.418;20.742;2023-04-03T10:38:01;101615.89;;;10.43;35.87
75172;BME280;63750;52.418;20.742;2023-04-03T10:40:37;101623.84;;;10.38;35.94
75172;BME280;63750;52.418;20.742;2023-04-03T10:43:14;101621.62;;;10.34;36.01
75172;BME280;63750;52.418;20.742;2023-04-03T10:45:55;101611.64;;;10.50;36.16
75172;BME280;63750;52.418;20.742;2023-04-03T10:48:46;101612.27;;;10.72;35.74
75172;BME280;63750;52.418;20.742;2023-04-03T10:51:31;101607.36;;;10.93;35.67
75172;BME280;63750;52.418;20.742;2023-04-03T10:54:08;101608.00;;;11.19;35.59
75172;BME280;63750;52.418;20.742;2023-04-03T10:56:41;101606.94;;;11.19;34.94
75172;BME280;63750;52.418;20.742;2023-04-03T10:59:23;101610.36;;;11.33;35.00
75172;BME280;63750;52.418;20.742;2023-04-03T11:02:25;101610.00;;;11.62;35.00
75172;BME280;63750;52.418;20.742;2023-04-03T11:05:06;101612.72;;;11.78;34.99
75172;BME280;63750;52.418;20.742;2023-04-03T11:07:40;101613.34;;;11.86;34.85
75172;BME280;63750;52.418;20.742;2023-04-03T11:10:15;101608.36;;;12.05;34.90
75172;BME280;63750;52.418;20.742;2023-04-03T11:12:48;101606.80;;;12.04;34.50
75172;BME280;63750;52.418;20.742;2023-04-03T11:15:20;101594.16;;;12.12;34.42
75172;BME280;63750;52.418;20.742;2023-04-03T11:17:55;101596.36;;;12.31;34.25
75172;BME280;63750;52.418;20.742;2023-04-03T11:20:57;101590.64;;;12.66;34.21
75172;BME280;63750;52.418;20.742;2023-04-03T11:23:31;101585.30;;;12.88;34.11
75172;BME280;63750;52.418;20.742;2023-04-03T11:26:10;101588.28;;;12.93;33.74
75172;BME280;63750;52.418;20.742;2023-04-03T11:28:39;101590.45;;;12.88;33.16
75172;BME280;63750;52.418;20.742;2023-04-03T11:31:22;101585.91;;;13.02;33.83
75172;BME280;63750;52.418;20.742;2023-04-03T11:34:00;101585.97;;;13.31;33.83
75172;BME280;63750;52.418;20.742;2023-04-03T11:36:38;101582.08;;;13.54;33.29
75172;BME280;63750;52.418;20.742;2023-04-03T11:39:20;101581.23;;;13.75;32.37
75172;BME280;63750;52.418;20.742;2023-04-03T11:41:50;101578.23;;;13.88;32.17
75172;BME280;63750;52.418;20.742;2023-04-03T11:44:35;101565.59;;;14.04;31.86
75172;BME280;63750;52.418;20.742;2023-04-03T11:47:05;101571.27;;;14.19;31.76
75172;BME280;63750;52.418;20.742;2023-04-03T11:49:55;101571.44;;;14.19;30.80
75172;BME280;63750;52.418;20.742;2023-04-03T11:55:58;101564.21;;;14.24;30.66
75172;BME280;63750;52.418;20.742;2023-04-03T11:58:29;101562.10;;;14.49;30.81
75172;BME280;63750;52.418;20.742;2023-04-03T12:04:05;101566.52;;;14.43;29.66
75172;BME280;63750;52.418;20.742;2023-04-03T12:07:01;101566.70;;;14.18;29.93
75172;BME280;63750;52.418;20.742;2023-04-03T12:09:58;101570.39;;;14.08;29.97
75172;BME280;63750;52.418;20.742;2023-04-03T12:12:32;101566.93;;;14.20;30.33
75172;BME280;63750;52.418;20.742;2023-04-03T12:15:21;101566.73;;;14.32;29.56
75172;BME280;63750;52.418;20.742;2023-04-03T12:17:50;101561.21;;;14.47;28.98
75172;BME280;63750;52.418;20.742;2023-04-03T12:20:55;101551.54;;;14.45;28.44
75172;BME280;63750;52.418;20.742;2023-04-03T12:23:30;101554.05;;;14.38;28.73
75172;BME280;63750;52.418;20.742;2023-04-03T12:26:18;101558.40;;;14.36;28.42
75172;BME280;63750;52.418;20.742;2023-04-03T12:28:48;101565.19;;;14.15;28.10
75172;BME280;63750;52.418;20.742;2023-04-03T12:31:19;101569.86;;;14.02;28.39
75172;BME280;63750;52.418;20.742;2023-04-03T12:34:04;101565.84;;;13.95;28.60
75172;BME280;63750;52.418;20.742;2023-04-03T12:36:45;101566.11;;;13.72;28.69
75172;BME280;63750;52.418;20.742;2023-04-03T12:39:32;101563.76;;;13.48;29.16
75172;BME280;63750;52.418;20.742;2023-04-03T12:42:16;101563.13;;;13.49;29.69
75172;BME280;63750;52.418;20.742;2023-04-03T12:44:57;101561.50;;;13.51;29.75
75172;BME280;63750;52.418;20.742;2023-04-03T12:47:33;101560.36;;;13.54;29.96
75172;BME280;63750;52.418;20.742;2023-04-03T12:50:03;101560.98;;;13.66;29.53
75172;BME280;63750;52.418;20.742;2023-04-03T12:52:37;101559.58;;;13.74;29.63
75172;BME280;63750;52.418;20.742;2023-04-03T12:55:15;101557.80;;;13.70;29.26
75172;BME280;63750;52.418;20.742;2023-04-03T12:57:45;101562.65;;;13.52;29.05
75172;BME280;63750;52.418;20.742;2023-04-03T13:00:33;101561.78;;;13.46;29.42
75172;BME280;63750;52.418;20.742;2023-04-03T13:03:03;101563.94;;;13.35;30.00
75172;BME280;63750;52.418;20.742;2023-04-03T13:05:33;101563.00;;;13.29;30.06
75172;BME280;63750;52.418;20.742;2023-04-03T13:08:04;101568.82;;;13.27;30.22
75172;BME280;63750;52.418;20.742;2023-04-03T13:10:46;101564.19;;;13.23;29.95
75172;BME280;63750;52.418;20.742;2023-04-03T13:13:16;101565.65;;;13.14;29.89
75172;BME280;63750;52.418;20.742;2023-04-03T13:15:47;101561.48;;;13.17;29.92
75172;BME280;63750;52.418;20.742;2023-04-03T13:18:39;101553.50;;;13.21;29.77